sensor_id;sensor_type;location;lat;lon;timestamp;P1;durP1;ratioP1;P2;durP2;ratioP2
61739;SDS011;47645;45.288;12.038;2022-11-20T00:02:37;6.5;;;4.2;;
61739;SDS011;47645;45.288;12.038;2022-11-20T00:12:38;13.0;;;4.6;;
61739;SDS011;47645;45.288;12.038;2022-11-20T00:22:38;7.0;;;4.6;;
61739;SDS011;47645;45.288;12.038;2022-11-20T00:32:39;6.2;;;4.2;;
61739;SDS011;47645;45.288;12.038;2022-11-20T00:42:40;8.3;;;4.9;;
61739;SDS011;47645;45.288;12.038;2022-11-20T00:52:41;7.1;;;4.3;;
61739;SDS011;47645;45.288;12.038;2022-11-20T01:02:41;6.7;;;4.7;;
61739;SDS011;47645;45.288;12.038;2022-11-20T01:12:42;7.8;;;5.3;;
61739;SDS011;47645;45.288;12.038;2022-11-20T01:22:42;7.7;;;4.8;;
61739;SDS011;47645;45.288;12.038;2022-11-20T01:32:43;8.4;;;5.2;;
61739;SDS011;47645;45.288;12.038;2022-11-20T01:43:34;7.9;;;5.6;;
61739;SDS011;47645;45.288;12.038;2022-11-20T01:52:45;8.0;;;5.6;;
61739;SDS011;47645;45.288;12.038;2022-11-20T02:02:47;6.5;;;4.5;;
61739;SDS011;47645;45.288;12.038;2022-11-20T02:22:47;5.8;;;4.0;;
61739;SDS011;47645;45.288;12.038;2022-11-20T02:32:47;5.5;;;3.9;;
61739;SDS011;47645;45.288;12.038;2022-11-20T02:42:47;9.7;;;4.3;;
61739;SDS011;47645;45.288;12.038;2022-11-20T02:52:48;7.0;;;3.8;;
61739;SDS011;47645;45.288;12.038;2022-11-20T03:02:48;4.6;;;3.4;;
61739;SDS011;47645;45.288;12.038;2022-11-20T03:12:52;4.7;;;2.7;;
61739;SDS011;47645;45.288;12.038;2022-11-20T03:22:49;5.2;;;2.8;;
61739;SDS011;47645;45.288;12.038;2022-11-20T03:32:52;5.8;;;2.5;;
61739;SDS011;47645;45.288;12.038;2022-11-20T03:42:50;4.3;;;2.6;;
61739;SDS011;47645;45.288;12.038;2022-11-20T03:52:51;5.1;;;3.1;;
61739;SDS011;47645;45.288;12.038;2022-11-20T04:02:51;4.4;;;2.9;;
61739;SDS011;47645;45.288;12.038;2022-11-20T04:12:52;4.8;;;3.0;;
61739;SDS011;47645;45.288;12.038;2022-11-20T04:22:53;4.7;;;2.7;;
61739;SDS011;47645;45.288;12.038;2022-11-20T04:32:53;8.2;;;3.1;;
61739;SDS011;47645;45.288;12.038;2022-11-20T04:42:53;4.7;;;3.4;;
61739;SDS011;47645;45.288;12.038;2022-11-20T04:52:55;4.7;;;3.4;;
61739;SDS011;47645;45.288;12.038;2022-11-20T05:02:55;5.8;;;3.8;;
61739;SDS011;47645;45.288;12.038;2022-11-20T05:12:56;5.3;;;3.7;;
61739;SDS011;47645;45.288;12.038;2022-11-20T05:22:56;7.0;;;4.0;;
61739;SDS011;47645;45.288;12.038;2022-11-20T05:32:56;5.8;;;4.0;;
61739;SDS011;47645;45.288;12.038;2022-11-20T05:42:57;10.6;;;4.3;;
61739;SDS011;47645;45.288;12.038;2022-11-20T05:52:58;6.8;;;3.8;;
61739;SDS011;47645;45.288;12.038;2022-11-20T06:02:58;6.3;;;3.8;;
61739;SDS011;47645;45.288;12.038;2022-11-20T06:12:59;6.9;;;4.2;;
61739;SDS011;47645;45.288;12.038;2022-11-20T06:22:59;5.9;;;3.9;;
61739;SDS011;47645;45.288;12.038;2022-11-20T06:33:00;5.9;;;3.8;;
61739;SDS011;47645;45.288;12.038;2022-11-20T06:43:00;7.3;;;4.0;;
61739;SDS011;47645;45.288;12.038;2022-11-20T06:53:01;9.7;;;4.7;;
61739;SDS011;47645;45.288;12.038;2022-11-20T07:03:02;8.1;;;4.9;;
61739;SDS011;47645;45.288;12.038;2022-11-20T07:13:01;8.2;;;4.8;;
61739;SDS011;47645;45.288;12.038;2022-11-20T07:23:02;9.0;;;4.8;;
61739;SDS011;47645;45.288;12.038;2022-11-20T07:33:02;8.6;;;5.2;;
61739;SDS011;47645;45.288;12.038;2022-11-20T07:43:03;8.0;;;5.3;;
61739;SDS011;47645;45.288;12.038;2022-11-20T07:53:04;22.9;;;12.2;;
61739;SDS011;47645;45.288;12.038;2022-11-20T08:03:04;7.9;;;5.5;;
61739;SDS011;47645;45.288;12.038;2022-11-20T08:23:06;9.1;;;5.5;;
61739;SDS011;47645;45.288;12.038;2022-11-20T08:33:07;9.0;;;5.5;;
61739;SDS011;47645;45.288;12.038;2022-11-20T08:43:06;6.6;;;4.3;;
61739;SDS011;47645;45.288;12.038;2022-11-20T08:53:07;8.3;;;5.1;;
61739;SDS011;47645;45.288;12.038;2022-11-20T09:03:08;8.3;;;5.0;;
61739;SDS011;47645;45.288;12.038;2022-11-20T09:13:08;5.8;;;3.9;;
61739;SDS011;47645;45.288;12.038;2022-11-20T09:23:09;6.0;;;3.6;;
61739;SDS011;47645;45.288;12.038;2022-11-20T09:33:10;4.3;;;2.2;;
61739;SDS011;47645;45.288;12.038;2022-11-20T09:43:12;4.6;;;1.8;;
61739;SDS011;47645;45.288;12.038;2022-11-20T09:53:19;2.5;;;0.9;;
61739;SDS011;47645;45.288;12.038;2022-11-20T10:03:13;2.8;;;0.9;;
61739;SDS011;47645;45.288;12.038;2022-11-20T10:13:16;3.2;;;1.0;;
61739;SDS011;47645;45.288;12.038;2022-11-20T10:23:18;3.4;;;0.8;;
61739;SDS011;47645;45.288;12.038;2022-11-20T10:33:15;3.0;;;0.6;;
61739;SDS011;47645;45.288;12.038;2022-11-20T10:43:16;2.2;;;0.7;;
61739;SDS011;47645;45.288;12.038;2022-11-20T10:53:16;2.2;;;0.5;;
61739;SDS011;47645;45.288;12.038;2022-11-20T11:03:20;2.7;;;0.6;;
61739;SDS011;47645;45.288;12.038;2022-11-20T11:13:20;1.9;;;0.8;;
61739;SDS011;47645;45.288;12.038;2022-11-20T11:23:29;3.1;;;0.8;;
61739;SDS011;47645;45.288;12.038;2022-11-20T11:33:19;4.5;;;1.0;;
61739;SDS011;47645;45.288;12.038;2022-11-20T11:45:05;2.3;;;0.8;;
61739;SDS011;47645;45.288;12.038;2022-11-20T11:53:20;2.7;;;1.0;;
61739;SDS011;47645;45.288;12.038;2022-11-20T12:03:21;4.0;;;0.8;;
61739;SDS011;47645;45.288;12.038;2022-11-20T12:13:27;2.0;;;0.6;;
61739;SDS011;47645;45.288;12.038;2022-11-20T12:23:24;2.0;;;0.8;;
61739;SDS011;47645;45.288;12.038;2022-11-20T12:33:27;2.0;;;0.8;;
61739;SDS011;47645;45.288;12.038;2022-11-20T12:53:26;2.9;;;1.0;;
61739;SDS011;47645;45.288;12.038;2022-11-20T13:03:36;2.6;;;0.9;;
61739;SDS011;47645;45.288;12.038;2022-11-20T13:13:29;2.5;;;1.4;;
61739;SDS011;47645;45.288;12.038;2022-11-20T13:23:27;2.6;;;1.5;;
61739;SDS011;47645;45.288;12.038;2022-11-20T13:33:29;2.0;;;0.9;;
61739;SDS011;47645;45.288;12.038;2022-11-20T13:43:33;1.7;;;0.8;;
61739;SDS011;47645;45.288;12.038;2022-11-20T13:53:32;1.7;;;0.8;;
61739;SDS011;47645;45.288;12.038;2022-11-20T14:03:30;2.8;;;1.2;;
61739;SDS011;47645;45.288;12.038;2022-11-20T14:13:30;3.3;;;1.2;;
61739;SDS011;47645;45.288;12.038;2022-11-20T14:23:31;3.1;;;1.4;;
61739;SDS011;47645;45.288;12.038;2022-11-20T14:33:32;2.0;;;1.3;;
61739;SDS011;47645;45.288;12.038;2022-11-20T14:43:33;2.5;;;1.2;;
61739;SDS011;47645;45.288;12.038;2022-11-20T14:53:33;2.3;;;1.1;;
61739;SDS011;47645;45.288;12.038;2022-11-20T15:03:34;3.0;;;1.2;;
61739;SDS011;47645;45.288;12.038;2022-11-20T15:13:36;4.5;;;2.0;;
61739;SDS011;47645;45.288;12.038;2022-11-20T15:23:35;6.0;;;2.3;;
61739;SDS011;47645;45.288;12.038;2022-11-20T15:33:35;3.5;;;1.6;;
61739;SDS011;47645;45.288;12.038;2022-11-20T15:43:36;2.2;;;1.0;;
61739;SDS011;47645;45.288;12.038;2022-11-20T15:53:37;4.1;;;1.7;;
61739;SDS011;47645;45.288;12.038;2022-11-20T16:03:37;2.8;;;1.5;;
61739;SDS011;47645;45.288;12.038;2022-11-20T16:23:39;2.9;;;1.6;;
61739;SDS011;47645;45.288;12.038;2022-11-20T16:33:40;4.1;;;2.1;;
61739;SDS011;47645;45.288;12.038;2022-11-20T16:43:43;7.2;;;3.4;;
61739;SDS011;47645;45.288;12.038;2022-11-20T16:53:42;5.3;;;2.8;;
61739;SDS011;47645;45.288;12.038;2022-11-20T17:03:41;7.0;;;4.2;;
61739;SDS011;47645;45.288;12.038;2022-11-20T17:13:42;4.8;;;2.5;;
61739;SDS011;47645;45.288;12.038;2022-11-20T17:23:43;6.3;;;3.1;;
61739;SDS011;47645;45.288;12.038;2022-11-20T17:33:45;5.7;;;3.0;;
61739;SDS011;47645;45.288;12.038;2022-11-20T17:43:44;7.5;;;4.5;;
61739;SDS011;47645;45.288;12.038;2022-11-20T17:53:45;7.0;;;4.5;;
61739;SDS011;47645;45.288;12.038;2022-11-20T18:03:44;19.4;;;10.5;;
61739;SDS011;47645;45.288;12.038;2022-11-20T18:14:49;11.3;;;6.4;;
61739;SDS011;47645;45.288;12.038;2022-11-20T18:23:45;14.9;;;7.8;;
61739;SDS011;47645;45.288;12.038;2022-11-20T18:33:46;17.0;;;9.7;;
61739;SDS011;47645;45.288;12.038;2022-11-20T18:44:51;23.3;;;12.5;;
61739;SDS011;47645;45.288;12.038;2022-11-20T18:53:47;15.9;;;8.8;;
61739;SDS011;47645;45.288;12.038;2022-11-20T19:03:47;21.3;;;10.4;;
61739;SDS011;47645;45.288;12.038;2022-11-20T19:23:49;40.7;;;21.9;;
61739;SDS011;47645;45.288;12.038;2022-11-20T19:33:51;28.5;;;16.2;;
61739;SDS011;47645;45.288;12.038;2022-11-20T19:43:51;22.0;;;12.4;;
61739;SDS011;47645;45.288;12.038;2022-11-20T19:53:51;21.7;;;13.2;;
61739;SDS011;47645;45.288;12.038;2022-11-20T20:03:51;25.0;;;13.5;;
61739;SDS011;47645;45.288;12.038;2022-11-20T20:13:51;22.6;;;13.2;;
61739;SDS011;47645;45.288;12.038;2022-11-20T20:23:52;21.4;;;12.8;;
61739;SDS011;47645;45.288;12.038;2022-11-20T20:33:53;23.0;;;13.8;;
61739;SDS011;47645;45.288;12.038;2022-11-20T20:53:53;22.9;;;13.5;;
61739;SDS011;47645;45.288;12.038;2022-11-20T21:03:53;21.7;;;14.4;;
61739;SDS011;47645;45.288;12.038;2022-11-20T21:13:54;30.2;;;19.4;;
61739;SDS011;47645;45.288;12.038;2022-11-20T21:23:54;24.9;;;15.0;;
61739;SDS011;47645;45.288;12.038;2022-11-20T21:33:56;26.3;;;15.9;;
61739;SDS011;47645;45.288;12.038;2022-11-20T21:43:56;51.8;;;25.1;;
61739;SDS011;47645;45.288;12.038;2022-11-20T21:53:56;31.2;;;18.0;;
61739;SDS011;47645;45.288;12.038;2022-11-20T22:03:57;28.3;;;18.1;;
61739;SDS011;47645;45.288;12.038;2022-11-20T22:14:29;36.4;;;24.5;;
61739;SDS011;47645;45.288;12.038;2022-11-20T22:23:57;28.5;;;18.4;;
61739;SDS011;47645;45.288;12.038;2022-11-20T22:33:59;33.7;;;21.9;;
61739;SDS011;47645;45.288;12.038;2022-11-20T22:43:58;32.1;;;20.2;;
61739;SDS011;47645;45.288;12.038;2022-11-20T22:53:59;31.8;;;18.2;;
61739;SDS011;47645;45.288;12.038;2022-11-20T23:03:59;23.0;;;14.3;;
61739;SDS011;47645;45.288;12.038;2022-11-20T23:14:00;22.7;;;13.7;;
61739;SDS011;47645;45.288;12.038;2022-11-20T23:23:59;20.6;;;13.1;;
61739;SDS011;47645;45.288;12.038;2022-11-20T23:34:00;18.7;;;11.9;;
61739;SDS011;47645;45.288;12.038;2022-11-20T23:44:00;17.5;;;11.9;;
61739;SDS011;47645;45.288;12.038;2022-11-20T23:54:01;18.1;;;12.1;;
